createdAt,value
2022-07-31T00:02:10.785Z,80.84
2022-07-31T00:04:38.888Z,80.83
2022-07-31T00:07:07.275Z,80.60
2022-07-31T00:09:48.949Z,80.71
2022-07-31T00:12:25.531Z,81.07
2022-07-31T00:14:53.871Z,81.23
2022-07-31T00:17:25.506Z,80.67
2022-07-31T00:20:01.138Z,80.94
2022-07-31T00:22:29.365Z,80.86
2022-07-31T00:24:59.668Z,80.65
2022-07-31T00:27:27.944Z,80.04
2022-07-31T00:29:57.258Z,79.73
2022-07-31T00:32:26.924Z,78.89
2022-07-31T00:34:55.389Z,78.87
2022-07-31T00:37:23.529Z,78.40
2022-07-31T00:39:51.820Z,77.82
2022-07-31T00:42:20.538Z,77.17
2022-07-31T00:44:49.733Z,76.34
2022-07-31T00:47:25.488Z,76.21
2022-07-31T00:49:55.588Z,76.27
2022-07-31T00:52:24.141Z,76.97
2022-07-31T00:54:52.464Z,77.92
2022-07-31T00:57:20.681Z,78.11
2022-07-31T00:59:48.985Z,77.87
2022-07-31T01:02:17.446Z,77.99
2022-07-31T01:04:45.919Z,77.63
2022-07-31T01:07:23.677Z,77.48
2022-07-31T01:09:55.434Z,77.34
2022-07-31T01:12:31.209Z,77.42
2022-07-31T01:15:03.565Z,77.09
2022-07-31T01:17:33.553Z,77.54
2022-07-31T01:20:02.054Z,77.59
2022-07-31T01:22:52.673Z,77.43
2022-07-31T01:25:34.928Z,77.19
2022-07-31T01:28:13.502Z,76.69
2022-07-31T01:30:52.949Z,76.50
2022-07-31T01:33:34.229Z,76.73
2022-07-31T01:36:10.703Z,76.69
2022-07-31T01:38:45.755Z,76.80
2022-07-31T01:41:17.268Z,77.01
2022-07-31T01:43:50.646Z,77.02
2022-07-31T01:46:22.713Z,77.41
2022-07-31T01:48:54.041Z,77.11
2022-07-31T01:51:24.065Z,76.85
2022-07-31T01:53:54.632Z,76.75
2022-07-31T01:56:23.975Z,76.69
2022-07-31T01:58:53.252Z,76.25
2022-07-31T02:01:27.263Z,75.89
2022-07-31T02:03:57.286Z,75.46
2022-07-31T02:06:29.762Z,75.32
2022-07-31T02:08:58.530Z,75.43
2022-07-31T02:11:26.750Z,75.80
2022-07-31T02:13:57.475Z,76.24
2022-07-31T02:16:28.688Z,76.41
2022-07-31T02:18:58.755Z,76.08
2022-07-31T02:21:27.128Z,76.04
2022-07-31T02:23:57.252Z,76.42
2022-07-31T02:26:26.712Z,76.23
2022-07-31T02:28:56.254Z,75.71
2022-07-31T02:31:24.871Z,74.81
2022-07-31T02:33:55.213Z,74.24
2022-07-31T02:36:24.554Z,74.39
2022-07-31T02:39:04.539Z,74.23
2022-07-31T02:41:33.199Z,73.62
2022-07-31T02:44:02.750Z,73.91
2022-07-31T02:46:32.294Z,74.22
2022-07-31T02:49:03.029Z,74.04
2022-07-31T02:51:42.624Z,73.90
2022-07-31T02:54:11.701Z,73.90
2022-07-31T02:56:41.478Z,74.13
2022-07-31T02:59:11.335Z,74.70
2022-07-31T03:01:39.995Z,74.55
2022-07-31T03:04:10.235Z,75.14
2022-07-31T03:06:38.396Z,75.02
2022-07-31T03:09:06.532Z,74.83
2022-07-31T03:11:34.634Z,75.13
2022-07-31T03:14:04.495Z,75.48
2022-07-31T03:16:34.183Z,75.45
2022-07-31T03:19:04.531Z,75.56
2022-07-31T03:21:34.167Z,75.46
2022-07-31T03:24:03.397Z,75.61
2022-07-31T03:26:32.127Z,76.21
2022-07-31T03:29:01.785Z,76.13
2022-07-31T03:31:31.149Z,76.25
2022-07-31T03:33:59.465Z,75.89
2022-07-31T03:36:28.124Z,76.30
2022-07-31T03:38:57.668Z,76.83
2022-07-31T03:41:25.836Z,76.70
2022-07-31T03:43:54.764Z,76.63
2022-07-31T03:46:25.652Z,76.57
2022-07-31T03:48:53.950Z,76.42
2022-07-31T03:51:22.312Z,77.30
2022-07-31T03:53:51.756Z,77.60
2022-07-31T03:56:22.292Z,77.37
2022-07-31T03:58:58.011Z,78.12
2022-07-31T04:01:28.945Z,78.26
2022-07-31T04:04:19.216Z,78.38
2022-07-31T04:06:47.303Z,78.58
2022-07-31T04:09:19.003Z,79.43
2022-07-31T04:11:48.785Z,79.78
2022-07-31T04:14:16.899Z,79.95
2022-07-31T04:16:45.086Z,79.68
2022-07-31T04:19:13.307Z,80.04
2022-07-31T04:21:41.531Z,79.92
2022-07-31T04:24:11.591Z,79.88
2022-07-31T04:26:39.903Z,79.79
2022-07-31T04:29:10.707Z,79.46
2022-07-31T04:31:38.920Z,78.96
2022-07-31T04:34:07.195Z,78.69
2022-07-31T04:36:35.514Z,78.88
2022-07-31T04:39:03.740Z,79.30
2022-07-31T04:41:32.637Z,79.20
2022-07-31T04:44:01.024Z,78.27
2022-07-31T04:46:30.629Z,77.82
2022-07-31T04:48:58.970Z,78.03
2022-07-31T04:51:27.491Z,77.29
2022-07-31T04:53:55.721Z,77.61
2022-07-31T04:56:37.979Z,76.52
2022-07-31T04:59:07.941Z,76.54
2022-07-31T05:01:37.695Z,76.00
2022-07-31T05:04:06.431Z,75.58
2022-07-31T05:06:36.541Z,74.98
2022-07-31T05:09:08.602Z,75.15
2022-07-31T05:11:38.673Z,73.10
2022-07-31T05:14:09.091Z,68.92
2022-07-31T05:16:39.416Z,69.14
2022-07-31T05:19:13.833Z,70.42
2022-07-31T05:21:53.435Z,71.14
2022-07-31T05:24:33.285Z,71.75
2022-07-31T05:27:02.450Z,71.97
2022-07-31T05:29:31.492Z,72.61
2022-07-31T05:32:01.719Z,72.52
2022-07-31T05:34:30.975Z,72.57
2022-07-31T05:37:02.766Z,72.36
2022-07-31T05:39:32.564Z,72.70
2022-07-31T05:42:00.896Z,72.30
2022-07-31T05:44:29.468Z,71.60
2022-07-31T05:49:29.160Z,71.36
2022-07-31T05:51:57.439Z,70.45
2022-07-31T05:54:25.996Z,69.45
2022-07-31T05:56:54.102Z,69.75
2022-07-31T05:59:22.725Z,68.95
2022-07-31T06:01:58.869Z,67.35
2022-07-31T06:04:28.591Z,67.12
2022-07-31T06:06:57.370Z,67.44
2022-07-31T06:09:25.822Z,67.05
2022-07-31T06:11:54.347Z,66.29
2022-07-31T06:14:22.519Z,65.67
2022-07-31T06:16:50.721Z,65.50
2022-07-31T06:19:24.454Z,65.70
2022-07-31T06:21:55.310Z,65.39
2022-07-31T06:24:23.675Z,65.10
2022-07-31T06:26:53.241Z,64.11
2022-07-31T06:29:41.743Z,64.36
2022-07-31T06:32:10.855Z,64.18
2022-07-31T06:34:39.249Z,63.58
2022-07-31T06:37:09.108Z,64.04
2022-07-31T06:39:54.856Z,62.63
2022-07-31T06:42:25.368Z,62.84
2022-07-31T06:46:49.628Z,63.18
2022-07-31T06:48:52.432Z,63.04
2022-07-31T06:51:30.864Z,62.75
2022-07-31T06:54:02.004Z,62.39
2022-07-31T06:56:55.343Z,62.40
2022-07-31T06:59:39.858Z,62.06
2022-07-31T07:02:09.414Z,63.31
2022-07-31T07:05:17.763Z,63.99
2022-07-31T07:07:48.084Z,63.46
2022-07-31T07:10:18.864Z,63.64
2022-07-31T07:16:19.197Z,62.85
2022-07-31T07:18:47.492Z,62.85
2022-07-31T07:21:16.261Z,63.06
2022-07-31T07:23:46.609Z,63.69
2022-07-31T07:26:16.335Z,63.99
2022-07-31T07:28:44.610Z,63.02
2022-07-31T07:31:13.341Z,63.65
2022-07-31T07:33:42.872Z,63.92
2022-07-31T07:36:24.269Z,62.58
2022-07-31T07:38:55.778Z,62.52
2022-07-31T07:41:27.179Z,63.07
2022-07-31T07:43:55.403Z,63.17
2022-07-31T07:46:24.823Z,63.14
2022-07-31T07:48:53.239Z,63.33
2022-07-31T07:51:22.603Z,63.65
2022-07-31T07:53:50.940Z,63.68
2022-07-31T07:56:26.645Z,62.70
2022-07-31T07:58:56.509Z,62.79
2022-07-31T08:01:26.385Z,63.30
2022-07-31T08:03:54.597Z,63.74
2022-07-31T08:06:23.474Z,63.77
2022-07-31T08:08:51.876Z,63.50
2022-07-31T08:11:20.602Z,63.19
2022-07-31T08:13:50.888Z,62.91
2022-07-31T08:16:24.330Z,62.75
2022-07-31T08:18:53.284Z,62.87
2022-07-31T08:21:23.643Z,61.92
2022-07-31T08:23:53.595Z,61.68
2022-07-31T08:26:21.962Z,61.55
2022-07-31T08:28:51.274Z,62.07
2022-07-31T08:31:21.570Z,62.26
2022-07-31T08:34:09.828Z,62.14
2022-07-31T08:36:39.009Z,61.79
2022-07-31T08:39:07.760Z,61.44
2022-07-31T08:41:38.915Z,61.00
2022-07-31T08:44:07.078Z,61.31
2022-07-31T08:46:39.340Z,61.18
2022-07-31T08:49:19.587Z,62.44
2022-07-31T08:51:50.539Z,62.41
2022-07-31T08:54:22.002Z,62.81
2022-07-31T08:56:52.652Z,62.80
2022-07-31T08:59:22.173Z,62.52
2022-07-31T09:01:53.320Z,62.04
2022-07-31T09:04:25.278Z,61.29
2022-07-31T09:06:53.678Z,61.08
2022-07-31T09:09:22.539Z,61.02
2022-07-31T09:11:55.475Z,61.18
2022-07-31T09:14:28.208Z,61.61
2022-07-31T09:16:58.677Z,61.32
2022-07-31T09:19:52.262Z,61.11
2022-07-31T09:22:24.280Z,61.21
2022-07-31T09:24:53.624Z,61.26
2022-07-31T09:27:29.600Z,60.89
2022-07-31T09:29:58.464Z,60.32
2022-07-31T09:32:27.977Z,59.09
2022-07-31T09:34:56.754Z,58.23
2022-07-31T09:37:27.844Z,57.33
2022-07-31T09:39:57.470Z,56.90
2022-07-31T09:42:45.585Z,56.43
2022-07-31T09:45:23.000Z,56.76
2022-07-31T09:48:06.370Z,56.85
2022-07-31T09:50:34.905Z,56.77
2022-07-31T09:53:03.077Z,56.32
2022-07-31T09:55:31.241Z,56.27
2022-07-31T09:58:00.595Z,56.67
2022-07-31T10:00:29.390Z,56.51
2022-07-31T10:02:58.742Z,55.90
2022-07-31T10:05:29.386Z,55.66
2022-07-31T10:08:00.353Z,56.10
2022-07-31T10:10:31.426Z,55.14
2022-07-31T10:13:03.181Z,55.30
2022-07-31T10:15:38.309Z,55.42
2022-07-31T10:18:08.642Z,55.41
2022-07-31T10:20:40.948Z,55.32
2022-07-31T10:23:12.705Z,55.20
2022-07-31T10:26:50.650Z,52.54
2022-07-31T10:29:17.549Z,52.65
2022-07-31T10:31:47.310Z,52.57
2022-07-31T10:34:16.170Z,52.54
2022-07-31T10:36:47.711Z,52.34
2022-07-31T10:39:37.231Z,51.42
2022-07-31T10:42:14.158Z,51.11
2022-07-31T10:45:29.058Z,50.72
2022-07-31T10:48:00.281Z,50.75
2022-07-31T10:50:38.531Z,49.46
2022-07-31T10:53:34.635Z,49.90
2022-07-31T10:56:13.373Z,49.89
2022-07-31T10:58:51.038Z,50.02
2022-07-31T11:01:19.691Z,50.84
2022-07-31T11:03:50.265Z,50.58
2022-07-31T11:06:23.878Z,49.11
2022-07-31T11:09:02.266Z,48.46
2022-07-31T11:11:36.999Z,47.88
2022-07-31T11:14:05.565Z,47.04
2022-07-31T11:16:34.515Z,47.40
2022-07-31T11:19:03.961Z,47.67
2022-07-31T11:21:39.311Z,48.21
2022-07-31T11:24:19.282Z,48.02
2022-07-31T11:26:51.870Z,48.69
2022-07-31T11:30:01.341Z,48.95
2022-07-31T11:32:36.155Z,48.19
2022-07-31T11:35:06.000Z,46.96
2022-07-31T11:37:57.035Z,46.78
2022-07-31T11:40:27.504Z,46.51
2022-07-31T11:46:26.031Z,47.37
2022-07-31T11:49:09.771Z,47.89
2022-07-31T11:55:17.035Z,47.68
2022-07-31T11:58:47.468Z,47.70
2022-07-31T12:01:18.753Z,46.82
2022-07-31T12:04:08.865Z,46.33
2022-07-31T12:06:38.603Z,46.61
2022-07-31T12:10:01.372Z,46.15
2022-07-31T12:15:27.356Z,46.86
2022-07-31T12:18:02.332Z,46.55
2022-07-31T12:20:35.904Z,46.47
2022-07-31T12:23:06.351Z,45.89
2022-07-31T12:25:45.779Z,45.26
2022-07-31T12:28:28.923Z,45.25
2022-07-31T12:31:01.459Z,44.76
2022-07-31T12:34:08.379Z,44.42
2022-07-31T12:37:17.866Z,44.85
2022-07-31T12:47:36.544Z,41.32
2022-07-31T12:50:05.233Z,41.79
2022-07-31T12:52:35.361Z,42.14
2022-07-31T12:56:29.007Z,41.42
2022-07-31T12:59:28.574Z,41.17
2022-07-31T13:02:26.235Z,42.15
2022-07-31T13:09:15.603Z,42.49
2022-07-31T13:12:06.234Z,43.08
2022-07-31T13:14:38.167Z,42.80
2022-07-31T13:17:15.152Z,42.85
2022-07-31T13:20:20.019Z,43.23
2022-07-31T13:23:30.120Z,43.20
2022-07-31T13:26:21.072Z,42.67
2022-07-31T13:29:31.310Z,42.29
2022-07-31T13:35:31.961Z,41.93
2022-07-31T13:39:01.120Z,42.07
2022-07-31T13:52:38.363Z,42.99
2022-07-31T13:55:19.270Z,42.95
2022-07-31T14:01:00.207Z,42.34
2022-07-31T14:03:39.574Z,42.58
2022-07-31T14:06:12.078Z,42.39
2022-07-31T14:08:49.849Z,41.98
2022-07-31T14:11:28.872Z,40.60
2022-07-31T14:13:57.037Z,40.42
2022-07-31T14:16:29.542Z,40.53
2022-07-31T14:19:27.832Z,40.68
2022-07-31T14:22:35.133Z,40.68
2022-07-31T14:28:27.206Z,41.26
2022-07-31T14:31:06.736Z,41.51
2022-07-31T14:33:40.265Z,40.84
2022-07-31T14:36:08.913Z,40.87
2022-07-31T14:38:56.508Z,41.59
2022-07-31T14:41:31.474Z,41.33
2022-07-31T14:44:18.387Z,41.24
2022-07-31T14:50:07.836Z,42.19
2022-07-31T14:52:41.848Z,41.66
2022-07-31T14:55:13.768Z,40.64
2022-07-31T14:57:50.532Z,40.22
2022-07-31T15:00:19.294Z,40.43
2022-07-31T15:02:49.574Z,40.05
2022-07-31T15:06:37.549Z,40.39
2022-07-31T15:08:07.679Z,40.59
2022-07-31T15:10:38.200Z,40.67
2022-07-31T15:13:10.420Z,40.65
2022-07-31T15:15:42.656Z,40.66
2022-07-31T15:18:12.210Z,40.43
2022-07-31T15:35:24.551Z,40.12
2022-07-31T15:37:53.023Z,40.20
2022-07-31T15:40:21.589Z,40.21
2022-07-31T15:42:50.104Z,40.22
2022-07-31T15:45:20.884Z,39.90
2022-07-31T15:47:52.832Z,39.60
2022-07-31T15:50:24.485Z,40.25
2022-07-31T15:52:55.353Z,39.82
2022-07-31T15:55:28.125Z,40.11
2022-07-31T15:57:58.427Z,40.29
2022-07-31T16:00:29.194Z,40.40
2022-07-31T16:02:57.616Z,41.21
2022-07-31T16:05:36.635Z,41.20
2022-07-31T16:08:33.093Z,41.47
2022-07-31T16:10:57.780Z,41.68
2022-07-31T16:13:27.392Z,41.81
2022-07-31T16:15:56.921Z,41.74
2022-07-31T16:18:25.348Z,41.87
2022-07-31T16:20:54.041Z,41.84
2022-07-31T16:23:25.766Z,41.89
2022-07-31T16:26:01.737Z,41.52
2022-07-31T16:28:30.062Z,41.89
2022-07-31T16:30:59.572Z,41.88
2022-07-31T16:33:30.346Z,42.14
2022-07-31T16:36:00.992Z,41.67
2022-07-31T16:38:38.237Z,41.87
2022-07-31T16:41:08.483Z,42.00
2022-07-31T16:43:49.556Z,42.32
2022-07-31T16:46:19.889Z,42.42
2022-07-31T16:48:48.230Z,42.49
2022-07-31T16:51:16.643Z,42.74
2022-07-31T16:54:14.178Z,42.55
2022-07-31T16:56:35.026Z,42.17
2022-07-31T16:59:23.114Z,42.54
2022-07-31T17:01:57.669Z,42.33
2022-07-31T17:04:42.171Z,41.94
2022-07-31T17:07:16.590Z,41.87
2022-07-31T17:10:10.610Z,41.90
2022-07-31T17:12:43.658Z,42.02
2022-07-31T17:15:13.634Z,41.80
2022-07-31T17:17:42.249Z,41.82
2022-07-31T17:20:12.500Z,41.97
2022-07-31T17:22:43.203Z,42.18
2022-07-31T17:25:13.222Z,42.29
2022-07-31T17:27:41.377Z,42.09
2022-07-31T17:30:10.577Z,42.37
2022-07-31T17:32:40.888Z,42.57
2022-07-31T17:35:13.582Z,42.48
2022-07-31T17:37:42.433Z,42.59
2022-07-31T17:40:33.630Z,42.93
2022-07-31T17:43:03.244Z,42.94
2022-07-31T17:45:50.575Z,43.18
2022-07-31T17:48:25.251Z,43.55
2022-07-31T17:50:54.343Z,43.84
2022-07-31T17:53:22.719Z,43.78
2022-07-31T17:56:00.731Z,44.11
2022-07-31T17:58:28.829Z,44.28
2022-07-31T18:00:57.231Z,44.63
2022-07-31T18:03:25.266Z,44.41
2022-07-31T18:05:53.520Z,44.25
2022-07-31T18:08:21.623Z,44.44
2022-07-31T18:10:54.568Z,44.44
2022-07-31T18:13:24.360Z,44.28
2022-07-31T18:15:53.012Z,44.44
2022-07-31T18:18:21.132Z,45.05
2022-07-31T18:20:52.863Z,44.75
2022-07-31T18:23:23.053Z,44.98
2022-07-31T18:25:55.180Z,44.99
2022-07-31T18:28:24.688Z,44.90
2022-07-31T18:30:53.226Z,45.42
2022-07-31T18:33:22.007Z,45.49
2022-07-31T18:35:50.308Z,45.76
2022-07-31T18:38:18.600Z,45.64
2022-07-31T18:40:47.581Z,45.21
2022-07-31T18:43:15.834Z,45.27
2022-07-31T18:45:46.042Z,45.50
2022-07-31T18:48:25.865Z,45.77
2022-07-31T18:51:01.288Z,46.00
2022-07-31T18:53:32.943Z,46.34
2022-07-31T18:56:01.405Z,47.07
2022-07-31T18:58:30.876Z,47.70
2022-07-31T19:01:02.171Z,47.72
2022-07-31T19:03:31.425Z,48.37
2022-07-31T19:06:00.231Z,48.56
2022-07-31T19:08:29.489Z,49.11
2022-07-31T19:10:57.550Z,49.66
2022-07-31T19:13:25.798Z,50.23
2022-07-31T19:15:54.250Z,50.73
2022-07-31T19:18:28.649Z,50.99
2022-07-31T19:21:23.557Z,50.47
2022-07-31T19:23:45.593Z,50.25
2022-07-31T19:26:13.835Z,50.32
2022-07-31T19:28:43.310Z,50.44
2022-07-31T19:31:11.797Z,50.18
2022-07-31T19:33:51.729Z,50.29
2022-07-31T19:36:20.958Z,50.17
2022-07-31T19:38:49.160Z,50.05
2022-07-31T19:41:17.371Z,50.12
2022-07-31T19:43:46.035Z,50.32
2022-07-31T19:46:14.260Z,50.12
2022-07-31T19:48:43.504Z,49.83
2022-07-31T19:51:14.741Z,50.07
2022-07-31T19:53:43.538Z,50.71
2022-07-31T19:56:15.662Z,50.68
2022-07-31T19:58:48.172Z,50.42
2022-07-31T20:01:16.604Z,50.52
2022-07-31T20:03:45.070Z,50.99
2022-07-31T20:06:14.788Z,50.58
2022-07-31T20:08:43.483Z,50.76
2022-07-31T20:11:11.885Z,50.94
2022-07-31T20:13:40.113Z,50.56
2022-07-31T20:16:08.520Z,50.54
2022-07-31T20:18:36.821Z,50.62
2022-07-31T20:21:07.950Z,50.38
2022-07-31T20:23:39.292Z,50.39
2022-07-31T20:26:08.975Z,50.58
2022-07-31T20:28:37.729Z,50.34
2022-07-31T20:31:18.526Z,50.37
2022-07-31T20:33:56.694Z,50.40
2022-07-31T20:36:26.927Z,50.22
2022-07-31T20:38:58.151Z,50.32
2022-07-31T20:41:27.440Z,50.18
2022-07-31T20:43:58.392Z,49.85
2022-07-31T20:46:30.845Z,49.68
2022-07-31T20:49:00.185Z,49.45
2022-07-31T20:51:28.359Z,49.11
2022-07-31T20:54:04.666Z,49.16
2022-07-31T20:56:33.306Z,48.59
2022-07-31T20:59:01.385Z,48.33
2022-07-31T21:01:30.585Z,48.04
2022-07-31T21:03:59.609Z,48.29
2022-07-31T21:06:27.744Z,48.32
2022-07-31T21:09:08.954Z,48.17
2022-07-31T21:14:30.921Z,48.44
2022-07-31T21:16:59.182Z,48.39
2022-07-31T21:19:27.399Z,48.47
2022-07-31T21:21:56.069Z,48.74
2022-07-31T21:24:26.338Z,48.47
2022-07-31T21:26:54.985Z,48.76
2022-07-31T21:29:26.654Z,48.71
2022-07-31T21:31:55.531Z,48.62
2022-07-31T21:34:24.177Z,48.08
2022-07-31T21:36:53.564Z,48.03
2022-07-31T21:39:25.717Z,47.65
2022-07-31T21:41:56.208Z,47.65
2022-07-31T21:44:24.769Z,47.25
2022-07-31T21:46:56.832Z,47.18
2022-07-31T21:49:26.939Z,47.56
2022-07-31T21:51:56.089Z,47.35
2022-07-31T21:54:24.494Z,47.47
2022-07-31T21:56:52.576Z,47.32
2022-07-31T21:59:22.285Z,47.52
2022-07-31T22:02:02.127Z,47.72
2022-07-31T22:04:34.854Z,47.77
2022-07-31T22:07:20.763Z,47.55
2022-07-31T22:09:48.914Z,47.77
2022-07-31T22:12:19.875Z,47.68
2022-07-31T22:14:49.688Z,47.80
2022-07-31T22:17:18.258Z,48.00
2022-07-31T22:19:47.349Z,47.90
2022-07-31T22:22:16.929Z,47.97
2022-07-31T22:24:45.611Z,48.05
2022-07-31T22:27:32.617Z,48.26
2022-07-31T22:30:02.881Z,48.63
2022-07-31T22:32:55.230Z,48.58
2022-07-31T22:35:23.697Z,48.74
2022-07-31T22:37:55.813Z,48.61
2022-07-31T22:40:25.515Z,48.52
2022-07-31T22:42:57.569Z,48.67
2022-07-31T22:45:28.227Z,48.76
2022-07-31T22:47:58.299Z,48.99
2022-07-31T22:50:27.266Z,48.95
2022-07-31T22:52:55.898Z,49.36
2022-07-31T22:55:24.239Z,49.48
2022-07-31T22:57:52.429Z,49.53
2022-07-31T23:00:20.743Z,49.75
2022-07-31T23:02:51.035Z,49.76
2022-07-31T23:05:19.271Z,49.66
2022-07-31T23:07:48.831Z,49.27
2022-07-31T23:10:25.867Z,49.57
2022-07-31T23:12:54.090Z,49.81
2022-07-31T23:15:22.474Z,49.63
2022-07-31T23:17:52.219Z,49.57
2022-07-31T23:20:20.441Z,50.03
2022-07-31T23:22:50.475Z,49.92
2022-07-31T23:25:20.862Z,50.00
2022-07-31T23:27:49.194Z,49.92
2022-07-31T23:30:17.390Z,50.42
2022-07-31T23:32:56.547Z,50.20
2022-07-31T23:35:24.712Z,50.05
2022-07-31T23:37:52.842Z,50.29
2022-07-31T23:40:21.095Z,50.40
2022-07-31T23:42:48.576Z,49.90
2022-07-31T23:45:17.224Z,49.74
2022-07-31T23:47:46.865Z,49.88
2022-07-31T23:50:17.036Z,49.58
2022-07-31T23:52:46.064Z,49.60
2022-07-31T23:55:14.584Z,49.67
2022-07-31T23:57:43.368Z,49.27
